createdAt,value
2019-01-05T00:01:14.167Z,51.37
2019-01-05T00:04:13.293Z,53.03
2019-01-05T00:07:13.294Z,56.07
2019-01-05T00:10:13.334Z,58.83
2019-01-05T00:13:07.412Z,55.33
2019-01-05T00:16:06.910Z,57.03
2019-01-05T00:19:06.854Z,53.53
2019-01-05T00:22:06.103Z,53.33
2019-01-05T00:28:14.204Z,53.67
2019-01-05T00:31:14.203Z,52.87
2019-01-05T00:34:13.655Z,56.60
2019-01-05T00:37:05.552Z,57.30
2019-01-05T00:40:10.813Z,59.57
2019-01-05T00:43:10.085Z,55.30
2019-01-05T00:46:09.363Z,60.23
2019-01-05T00:49:09.331Z,55.67
2019-01-05T00:52:08.524Z,60.10
2019-01-05T00:55:04.208Z,59.83
2019-01-05T01:01:05.727Z,63.03
2019-01-05T01:03:58.557Z,54.77
2019-01-05T01:06:58.341Z,62.07
2019-01-05T01:09:58.275Z,58.33
2019-01-05T01:12:57.523Z,61.60
2019-01-05T01:15:56.833Z,63.33
2019-01-05T01:18:56.056Z,59.47
2019-01-05T01:21:55.233Z,68.37
2019-01-05T01:24:54.551Z,63.27
2019-01-05T01:30:55.983Z,63.67
2019-01-05T01:33:55.896Z,62.13
2019-01-05T01:36:49.333Z,65.03
2019-01-05T01:39:54.837Z,67.40
2019-01-05T01:42:50.886Z,73.60
2019-01-05T01:45:50.392Z,65.07
2019-01-05T01:51:51.322Z,55.83
2019-01-05T01:54:39.537Z,59.87
2019-01-05T01:57:32.160Z,68.93
2019-01-05T02:00:31.880Z,67.23
2019-01-05T02:03:32.236Z,63.13
2019-01-05T02:06:32.240Z,58.83
2019-01-05T02:09:39.226Z,55.83
2019-01-05T02:12:38.479Z,56.60
2019-01-05T02:15:37.711Z,61.53
2019-01-05T02:21:39.986Z,58.93
2019-01-05T02:24:41.413Z,61.37
2019-01-05T02:27:44.414Z,60.63
2019-01-05T02:33:47.039Z,60.87
2019-01-05T02:36:47.633Z,61.63
2019-01-05T02:39:42.646Z,58.70
2019-01-05T02:42:42.533Z,67.87
2019-01-05T02:45:42.363Z,61.73
2019-01-05T02:48:41.591Z,68.17
2019-01-05T02:51:40.958Z,63.97
2019-01-05T02:54:40.655Z,64.10
2019-01-05T03:00:45.369Z,65.13
2019-01-05T03:10:26.618Z,70.10
2019-01-05T03:13:52.509Z,65.47
2019-01-05T03:19:53.891Z,64.87
2019-01-05T03:22:59.313Z,60.43
2019-01-05T03:25:58.570Z,66.93
2019-01-05T03:28:57.681Z,63.53
2019-01-05T03:32:02.736Z,63.70
2019-01-05T03:35:04.699Z,52.83
2019-01-05T03:38:04.201Z,53.30
2019-01-05T03:41:04.623Z,52.43
2019-01-05T03:43:59.263Z,56.90
2019-01-05T03:46:58.738Z,44.07
2019-01-05T03:53:06.531Z,44.63
2019-01-05T03:55:51.759Z,38.07
2019-01-05T03:58:54.051Z,41.47
2019-01-05T04:01:59.394Z,40.07
2019-01-05T04:04:59.457Z,37.57
2019-01-05T04:07:58.589Z,37.27
2019-01-05T04:10:58.616Z,37.13
2019-01-05T04:13:57.756Z,30.40
2019-01-05T04:16:57.023Z,26.93
2019-01-05T04:35:05.866Z,16.53
2019-01-05T04:38:05.629Z,18.63
2019-01-05T04:41:05.509Z,15.20
2019-01-05T04:44:10.788Z,22.43
2019-01-05T04:50:08.748Z,17.53
2019-01-05T04:53:08.518Z,15.10
2019-01-05T04:56:14.357Z,13.53
2019-01-05T04:59:13.850Z,13.63
2019-01-05T05:02:13.254Z,13.47
2019-01-05T05:05:12.870Z,15.43
2019-01-05T05:08:12.168Z,14.77
2019-01-05T05:11:02.220Z,19.13
2019-01-05T05:13:58.284Z,14.23
2019-01-05T05:16:57.727Z,17.07
2019-01-05T05:19:58.101Z,14.27
2019-01-05T05:26:01.615Z,17.10
2019-01-05T05:35:06.249Z,19.47
2019-01-05T05:38:05.499Z,20.23
2019-01-05T05:41:05.103Z,14.53
2019-01-05T05:44:04.201Z,15.00
2019-01-05T05:47:03.607Z,16.60
2019-01-05T05:53:26.160Z,15.30
2019-01-05T05:56:52.042Z,14.63
2019-01-05T05:59:54.701Z,13.10
2019-01-05T06:02:49.870Z,15.20
2019-01-05T06:05:49.589Z,16.07
2019-01-05T06:08:54.860Z,16.63
2019-01-05T06:12:00.891Z,15.33
2019-01-05T06:15:00.215Z,15.93
2019-01-05T06:17:55.237Z,14.53
2019-01-05T06:20:54.518Z,12.97
2019-01-05T06:23:50.472Z,14.80
2019-01-05T06:26:49.880Z,12.83
2019-01-05T06:29:49.297Z,11.23
2019-01-05T06:32:48.552Z,11.13
2019-01-05T06:35:47.617Z,13.60
2019-01-05T06:38:46.825Z,9.07
2019-01-05T06:41:45.934Z,8.50
2019-01-05T06:44:45.135Z,7.07
2019-01-05T06:47:47.440Z,7.87
2019-01-05T06:50:47.349Z,8.47
2019-01-05T06:59:44.984Z,10.13
2019-01-05T07:02:44.154Z,9.50
2019-01-05T07:05:46.737Z,8.00
2019-01-05T07:08:49.380Z,11.27
2019-01-05T07:11:54.730Z,12.40
2019-01-05T07:14:59.361Z,7.23
2019-01-05T07:21:04.250Z,9.10
2019-01-05T07:23:59.334Z,8.57
2019-01-05T07:26:58.719Z,7.60
2019-01-05T07:29:49.578Z,11.17
2019-01-05T07:32:49.272Z,11.30
2019-01-05T07:35:48.676Z,8.63
2019-01-05T07:38:48.684Z,10.83
2019-01-05T07:41:54.025Z,12.30
2019-01-05T07:44:53.408Z,10.37
2019-01-05T07:50:56.311Z,9.17
2019-01-05T07:53:55.858Z,9.50
2019-01-05T07:56:55.122Z,10.77
2019-01-05T07:59:54.260Z,12.50
2019-01-05T08:02:54.239Z,13.30
2019-01-05T08:05:59.474Z,10.47
2019-01-05T08:08:58.693Z,12.13
2019-01-05T08:11:57.873Z,13.80
2019-01-05T08:14:57.730Z,8.87
2019-01-05T08:17:57.201Z,10.70
2019-01-05T08:20:56.864Z,10.43
2019-01-05T08:23:56.453Z,8.37
2019-01-05T08:26:56.506Z,10.77
2019-01-05T08:32:58.744Z,12.47
2019-01-05T08:35:58.702Z,8.83
2019-01-05T08:39:03.556Z,10.27
2019-01-05T08:42:02.896Z,9.07
2019-01-05T08:45:02.776Z,13.77
2019-01-05T08:48:02.176Z,8.70
2019-01-05T08:51:29.275Z,9.50
2019-01-05T08:54:55.115Z,9.33
2019-01-05T08:57:54.557Z,7.10
2019-01-05T09:00:57.160Z,13.13
2019-01-05T09:03:56.527Z,8.60
2019-01-05T09:06:58.816Z,7.77
2019-01-05T09:09:59.158Z,8.70
2019-01-05T09:12:59.113Z,10.40
2019-01-05T09:15:58.398Z,5.43
2019-01-05T09:19:03.390Z,7.13
2019-01-05T09:22:03.095Z,6.97
2019-01-05T09:25:02.504Z,5.40
2019-01-05T09:28:07.643Z,6.03
2019-01-05T09:31:06.808Z,8.43
2019-01-05T09:34:12.871Z,8.37
2019-01-05T09:37:15.620Z,4.00
2019-01-05T09:40:04.473Z,4.00
2019-01-05T09:43:04.258Z,5.53
2019-01-05T09:46:04.580Z,5.50
2019-01-05T09:52:09.795Z,4.37
2019-01-05T09:55:09.746Z,8.87
2019-01-05T09:58:08.988Z,7.07
2019-01-05T10:04:15.040Z,8.13
2019-01-05T10:07:16.002Z,4.63
2019-01-05T10:10:18.486Z,6.67
2019-01-05T10:13:15.088Z,5.00
2019-01-05T10:16:21.070Z,6.03
2019-01-05T10:19:20.368Z,30.17
2019-01-05T10:22:19.268Z,6.83
2019-01-05T10:25:18.634Z,7.40
2019-01-05T10:31:02.198Z,15.20
2019-01-05T10:34:01.418Z,6.83
2019-01-05T10:37:03.925Z,8.17
2019-01-05T10:43:06.964Z,9.10
2019-01-05T10:46:08.255Z,10.20
2019-01-05T10:49:11.022Z,9.20
2019-01-05T10:52:10.186Z,12.30
2019-01-05T10:54:51.367Z,10.10
2019-01-05T11:03:39.560Z,10.87
2019-01-05T11:06:39.635Z,8.73
2019-01-05T11:09:39.634Z,13.63
2019-01-05T11:12:39.857Z,9.63
2019-01-05T11:15:39.840Z,11.53
2019-01-05T11:18:39.070Z,13.27
2019-01-05T11:21:41.270Z,12.50
2019-01-05T11:30:42.556Z,13.00
2019-01-05T11:33:41.990Z,14.60
2019-01-05T11:36:44.448Z,13.23
2019-01-05T11:42:46.780Z,14.80
2019-01-05T11:48:31.975Z,13.47
2019-01-05T11:51:31.970Z,17.00
2019-01-05T11:54:34.747Z,12.43
2019-01-05T11:57:34.287Z,13.90
2019-01-05T12:00:36.031Z,16.37
2019-01-05T12:09:46.965Z,13.30
2019-01-05T12:15:52.030Z,13.37
2019-01-05T12:18:55.104Z,12.17
2019-01-05T12:21:57.726Z,16.47
2019-01-05T12:25:01.493Z,13.83
2019-01-05T12:28:00.977Z,12.70
2019-01-05T12:31:00.080Z,13.80
2019-01-05T12:37:09.175Z,12.43
2019-01-05T12:40:35.060Z,13.80
2019-01-05T12:43:40.384Z,12.40
2019-01-05T12:46:40.335Z,13.63
2019-01-05T12:49:43.435Z,9.33
2019-01-05T12:52:43.692Z,10.27
2019-01-05T12:55:43.585Z,13.63
2019-01-05T12:58:44.664Z,10.33
2019-01-05T13:07:27.343Z,14.17
2019-01-05T13:10:28.418Z,17.40
2019-01-05T13:13:28.333Z,12.20
2019-01-05T13:19:36.210Z,15.47
2019-01-05T13:22:34.614Z,13.43
2019-01-05T13:28:16.816Z,13.63
2019-01-05T13:31:16.943Z,14.03
2019-01-05T13:34:16.163Z,17.47
2019-01-05T13:37:16.021Z,16.13
2019-01-05T13:40:18.396Z,17.07
2019-01-05T13:43:10.615Z,16.83
2019-01-05T13:46:09.127Z,14.70
2019-01-05T13:49:14.761Z,14.33
2019-01-05T13:52:17.136Z,16.70
2019-01-05T13:55:17.054Z,14.03
2019-01-05T13:58:22.407Z,18.23
2019-01-05T14:01:22.401Z,11.77
2019-01-05T14:07:04.855Z,11.40
2019-01-05T14:10:04.820Z,14.73
2019-01-05T14:13:04.107Z,15.60
2019-01-05T14:16:05.227Z,11.60
2019-01-05T14:19:05.532Z,16.20
2019-01-05T14:22:06.629Z,15.90
2019-01-05T14:25:06.663Z,15.30
2019-01-05T14:28:06.474Z,15.17
2019-01-05T14:33:49.073Z,16.43
2019-01-05T14:36:36.983Z,13.47
2019-01-05T14:39:23.563Z,15.30
2019-01-05T14:45:24.421Z,14.40
2019-01-05T14:48:30.919Z,13.80
2019-01-05T14:51:14.903Z,11.23
2019-01-05T14:54:01.165Z,11.97
2019-01-05T14:56:47.625Z,11.90
2019-01-05T15:02:36.417Z,18.17
2019-01-05T15:08:27.032Z,11.40
2019-01-05T15:11:33.615Z,15.20
2019-01-05T15:17:06.439Z,14.93
2019-01-05T15:20:12.905Z,15.87
2019-01-05T15:22:56.953Z,16.57
2019-01-05T15:26:00.853Z,14.77
2019-01-05T15:31:27.379Z,14.37
2019-01-05T15:34:29.683Z,14.83
2019-01-05T15:37:29.645Z,17.70
2019-01-05T15:40:32.085Z,18.67
2019-01-05T15:46:35.173Z,16.57
2019-01-05T15:52:27.593Z,16.37
2019-01-05T16:01:03.242Z,12.80
2019-01-05T16:04:03.342Z,18.60
2019-01-05T16:09:30.850Z,14.03
2019-01-05T16:12:32.532Z,12.17
2019-01-05T16:15:31.668Z,14.80
2019-01-05T16:18:18.897Z,11.50
2019-01-05T16:21:25.527Z,11.03
2019-01-05T16:24:27.530Z,15.83
2019-01-05T16:27:29.225Z,21.43
2019-01-05T16:30:29.185Z,13.53
2019-01-05T16:33:28.561Z,18.40
2019-01-05T16:36:27.795Z,19.83
2019-01-05T16:42:11.295Z,15.17
2019-01-05T16:45:10.941Z,18.93
2019-01-05T16:48:10.550Z,15.80
2019-01-05T16:56:50.655Z,20.43
2019-01-05T16:59:37.590Z,14.90
2019-01-05T17:02:23.710Z,21.23
2019-01-05T17:05:09.970Z,13.53
2019-01-05T17:08:11.500Z,15.93
2019-01-05T17:11:13.385Z,18.80
2019-01-05T17:14:12.789Z,17.17
2019-01-05T17:17:11.819Z,20.23
2019-01-05T17:20:00.513Z,18.57
2019-01-05T17:22:40.169Z,16.17
2019-01-05T17:31:48.929Z,17.83
2019-01-05T17:34:48.679Z,22.50
2019-01-05T17:37:49.057Z,22.00
2019-01-05T17:40:49.062Z,19.57
2019-01-05T17:43:49.088Z,21.17
2019-01-05T17:46:45.060Z,22.10
2019-01-05T17:49:45.170Z,19.87
2019-01-05T17:52:45.205Z,21.80
2019-01-05T17:58:37.459Z,20.53
2019-01-05T18:01:38.744Z,20.37
2019-01-05T18:04:40.784Z,24.03
2019-01-05T18:07:27.200Z,23.50
2019-01-05T18:10:26.308Z,25.10
2019-01-05T18:13:31.900Z,22.33
2019-01-05T18:19:19.135Z,24.03
2019-01-05T18:22:18.397Z,25.83
2019-01-05T18:28:21.533Z,28.57
2019-01-05T18:31:22.384Z,26.80
2019-01-05T18:34:22.424Z,25.77
2019-01-05T18:37:28.473Z,27.57
2019-01-05T18:40:27.837Z,27.47
2019-01-05T18:46:30.682Z,24.83
2019-01-05T18:49:26.554Z,25.13
2019-01-05T18:52:26.038Z,25.07
2019-01-05T18:55:13.207Z,25.17
2019-01-05T18:58:20.463Z,26.57
2019-01-05T19:01:06.856Z,24.00
2019-01-05T19:03:53.956Z,24.30
2019-01-05T19:06:53.685Z,24.43
2019-01-05T19:12:23.040Z,21.67
2019-01-05T19:15:07.039Z,25.13
2019-01-05T19:21:04.556Z,21.93
2019-01-05T19:23:50.746Z,22.93
2019-01-05T19:26:50.211Z,24.37
2019-01-05T19:29:36.568Z,23.70
2019-01-05T19:32:22.988Z,23.20
2019-01-05T19:41:00.835Z,25.50
2019-01-05T19:44:00.008Z,23.17
2019-01-05T19:49:29.754Z,24.33
2019-01-05T19:55:22.194Z,26.80
2019-01-05T19:58:23.048Z,25.33
2019-01-05T20:01:06.643Z,20.17
2019-01-05T20:04:11.966Z,24.47
2019-01-05T20:06:53.048Z,27.07
2019-01-05T20:09:56.963Z,23.67
2019-01-05T20:21:33.738Z,25.50
2019-01-05T20:29:48.870Z,26.73
2019-01-05T20:41:30.308Z,24.97
2019-01-05T20:44:17.048Z,22.20
2019-01-05T20:50:06.201Z,21.80
2019-01-05T20:55:57.171Z,27.63
2019-01-05T20:58:43.620Z,23.00
2019-01-05T21:01:47.723Z,24.60
2019-01-05T21:04:34.137Z,22.50
2019-01-05T21:07:34.523Z,26.13
2019-01-05T21:10:20.744Z,24.27
2019-01-05T21:16:25.535Z,25.27
2019-01-05T21:22:37.897Z,23.97
2019-01-05T21:25:24.057Z,22.13
2019-01-05T21:28:10.132Z,23.37
2019-01-05T21:30:56.161Z,19.80
2019-01-05T21:33:51.338Z,21.77
2019-01-05T21:40:07.754Z,20.90
2019-01-05T21:43:08.839Z,25.43
2019-01-05T21:48:36.143Z,22.03
2019-01-05T21:51:22.342Z,26.00
2019-01-05T21:54:24.660Z,23.50
2019-01-05T21:57:28.511Z,22.17
2019-01-05T22:02:57.780Z,24.83
2019-01-05T22:11:36.246Z,21.53
2019-01-05T22:14:40.244Z,26.63
2019-01-05T22:17:24.248Z,20.50
2019-01-05T22:26:17.143Z,23.30
2019-01-05T22:29:16.415Z,22.03
2019-01-05T22:31:57.529Z,19.80
2019-01-05T22:37:33.303Z,20.60
2019-01-05T22:40:39.815Z,25.80
2019-01-05T22:43:44.478Z,20.70
2019-01-05T22:46:48.726Z,22.07
2019-01-05T22:52:21.967Z,22.97
2019-01-05T22:55:28.493Z,20.07
2019-01-05T23:03:43.815Z,25.57
2019-01-05T23:06:50.264Z,24.27
2019-01-05T23:09:31.602Z,22.93
2019-01-05T23:12:37.600Z,23.53
2019-01-05T23:15:20.345Z,22.90
2019-01-05T23:24:23.267Z,23.67
2019-01-05T23:27:04.739Z,22.17
2019-01-05T23:32:33.316Z,23.83
2019-01-05T23:38:26.347Z,25.90
2019-01-05T23:41:24.383Z,24.10
2019-01-05T23:44:31.137Z,25.30
2019-01-05T23:47:18.615Z,21.93
2019-01-05T23:52:48.228Z,21.37
2019-01-05T23:55:49.377Z,22.60
2019-01-05T23:58:33.459Z,18.57
